createdAt,value
2017-07-04T00:01:27.053Z,17.90
2017-07-04T00:03:53.312Z,17.80
2017-07-04T00:06:19.577Z,17.70
2017-07-04T00:08:46.268Z,17.60
2017-07-04T00:11:12.926Z,17.80
2017-07-04T00:13:39.208Z,17.80
2017-07-04T00:16:05.489Z,17.70
2017-07-04T00:18:31.786Z,17.70
2017-07-04T00:20:58.067Z,17.70
2017-07-04T00:23:24.337Z,17.80
2017-07-04T00:25:50.610Z,17.90
2017-07-04T00:28:19.672Z,17.80
2017-07-04T00:30:45.946Z,17.80
2017-07-04T00:33:12.188Z,17.70
2017-07-04T00:35:38.479Z,17.60
2017-07-04T00:38:04.735Z,17.40
2017-07-04T00:40:31.051Z,17.30
2017-07-04T00:42:57.368Z,17.30
2017-07-04T00:45:23.637Z,17.20
2017-07-04T00:47:49.923Z,17.10
2017-07-04T00:50:16.211Z,17.20
2017-07-04T00:52:42.495Z,17.20
2017-07-04T00:55:08.750Z,17.00
2017-07-04T00:57:35.024Z,16.80
2017-07-04T01:00:01.272Z,16.80
2017-07-04T01:02:27.542Z,16.60
2017-07-04T01:04:53.817Z,16.60
2017-07-04T01:07:20.425Z,16.60
2017-07-04T01:09:46.698Z,16.60
2017-07-04T01:12:12.967Z,16.60
2017-07-04T01:14:39.236Z,16.60
2017-07-04T01:17:05.477Z,16.60
2017-07-04T01:19:32.007Z,16.80
2017-07-04T01:21:58.635Z,16.80
2017-07-04T01:24:25.260Z,16.70
2017-07-04T01:26:51.536Z,16.80
2017-07-04T01:29:17.783Z,16.80
2017-07-04T01:31:44.096Z,16.70
2017-07-04T01:34:10.424Z,16.70
2017-07-04T01:36:36.715Z,16.80
2017-07-04T01:39:03.039Z,16.60
2017-07-04T01:41:29.315Z,16.50
2017-07-04T01:43:55.622Z,16.30
2017-07-04T01:46:21.896Z,16.20
2017-07-04T01:48:48.179Z,16.00
2017-07-04T01:51:14.831Z,16.30
2017-07-04T01:53:41.148Z,16.30
2017-07-04T01:56:07.395Z,16.30
2017-07-04T01:58:33.918Z,16.40
2017-07-04T02:01:00.179Z,16.30
2017-07-04T02:03:26.448Z,16.30
2017-07-04T02:05:52.722Z,16.20
2017-07-04T02:08:18.971Z,16.30
2017-07-04T02:10:45.230Z,16.20
2017-07-04T02:13:11.475Z,16.30
2017-07-04T02:15:38.125Z,16.30
2017-07-04T02:18:04.760Z,16.40
2017-07-04T02:20:31.036Z,16.40
2017-07-04T02:22:57.282Z,16.40
2017-07-04T02:25:23.560Z,16.20
2017-07-04T02:27:49.827Z,16.10
2017-07-04T02:30:16.095Z,16.00
2017-07-04T02:32:42.716Z,16.20
2017-07-04T02:35:08.969Z,16.20
2017-07-04T02:37:35.643Z,16.40
2017-07-04T02:40:01.975Z,16.40
2017-07-04T02:42:28.236Z,16.40
2017-07-04T02:44:54.534Z,16.30
2017-07-04T02:47:20.813Z,16.20
2017-07-04T02:49:47.093Z,16.30
2017-07-04T02:52:13.395Z,16.30
2017-07-04T02:54:39.662Z,16.40
2017-07-04T02:57:05.919Z,16.30
2017-07-04T02:59:32.188Z,16.30
2017-07-04T03:01:58.466Z,16.40
2017-07-04T03:04:24.716Z,16.50
2017-07-04T03:06:51.354Z,16.40
2017-07-04T03:09:17.607Z,16.50
2017-07-04T03:11:43.875Z,16.30
2017-07-04T03:14:10.136Z,16.40
2017-07-04T03:16:36.424Z,16.50
2017-07-04T03:19:02.689Z,16.40
2017-07-04T03:21:28.959Z,16.40
2017-07-04T03:23:55.235Z,16.40
2017-07-04T03:26:21.501Z,16.10
2017-07-04T03:28:47.764Z,16.10
2017-07-04T03:31:14.011Z,16.10
2017-07-04T03:33:40.529Z,16.20
2017-07-04T03:36:06.792Z,16.20
2017-07-04T03:38:33.102Z,16.10
2017-07-04T03:40:59.387Z,16.10
2017-07-04T03:43:25.664Z,16.10
2017-07-04T03:45:51.952Z,16.10
2017-07-04T03:48:18.221Z,16.10
2017-07-04T03:50:44.528Z,16.20
2017-07-04T03:53:10.792Z,16.10
2017-07-04T03:55:37.084Z,16.20
2017-07-04T03:58:03.369Z,16.20
2017-07-04T04:00:29.625Z,16.20
2017-07-04T04:02:55.916Z,16.40
2017-07-04T04:05:22.158Z,16.40
2017-07-04T04:07:48.449Z,16.30
2017-07-04T04:10:14.716Z,16.50
2017-07-04T04:12:41.383Z,16.60
2017-07-04T04:15:07.690Z,16.60
2017-07-04T04:17:33.951Z,16.70
2017-07-04T04:20:00.233Z,16.60
2017-07-04T04:22:26.504Z,16.70
2017-07-04T04:24:52.747Z,16.90
2017-07-04T04:27:19.002Z,17.00
2017-07-04T04:29:45.289Z,16.90
2017-07-04T04:32:11.545Z,16.70
2017-07-04T04:34:38.431Z,16.70
2017-07-04T04:37:05.072Z,17.10
2017-07-04T04:39:31.716Z,17.30
2017-07-04T04:41:58.005Z,17.30
2017-07-04T04:44:24.288Z,17.50
2017-07-04T04:46:50.845Z,17.60
2017-07-04T04:49:17.116Z,17.70
2017-07-04T04:51:43.355Z,17.60
2017-07-04T04:54:09.638Z,17.80
2017-07-04T04:56:35.898Z,17.50
2017-07-04T04:59:02.225Z,17.50
2017-07-04T05:01:28.458Z,17.70
2017-07-04T05:03:54.981Z,17.70
2017-07-04T05:06:21.241Z,17.90
2017-07-04T05:08:47.897Z,18.10
2017-07-04T05:11:14.188Z,18.10
2017-07-04T05:13:40.469Z,18.00
2017-07-04T05:16:06.748Z,17.90
2017-07-04T05:18:33.024Z,17.80
2017-07-04T05:20:59.307Z,17.90
2017-07-04T05:23:25.542Z,18.20
2017-07-04T05:25:51.840Z,18.30
2017-07-04T05:28:18.100Z,18.20
2017-07-04T05:30:44.753Z,18.50
2017-07-04T05:33:11.061Z,18.50
2017-07-04T05:35:37.324Z,18.60
2017-07-04T05:38:03.614Z,18.70
2017-07-04T05:40:29.908Z,18.60
2017-07-04T05:42:56.215Z,18.70
2017-07-04T05:45:22.495Z,18.70
2017-07-04T05:47:49.043Z,19.00
2017-07-04T05:50:15.295Z,19.20
2017-07-04T05:52:41.556Z,19.20
2017-07-04T05:55:07.865Z,18.90
2017-07-04T05:57:34.115Z,19.00
2017-07-04T06:00:00.366Z,19.00
2017-07-04T06:02:26.627Z,19.10
2017-07-04T06:04:52.925Z,19.20
2017-07-04T06:07:19.233Z,19.00
2017-07-04T06:09:45.878Z,19.20
2017-07-04T06:12:12.121Z,19.40
2017-07-04T06:14:38.361Z,19.50
2017-07-04T06:17:05.284Z,19.60
2017-07-04T06:19:31.539Z,19.70
2017-07-04T06:21:57.831Z,19.60
2017-07-04T06:24:24.079Z,19.40
2017-07-04T06:26:50.333Z,19.70
2017-07-04T06:29:16.609Z,19.90
2017-07-04T06:31:42.897Z,20.10
2017-07-04T06:34:09.819Z,20.10
2017-07-04T06:36:36.080Z,20.10
2017-07-04T06:39:02.462Z,20.10
2017-07-04T06:41:28.755Z,20.40
2017-07-04T06:43:55.042Z,20.50
2017-07-04T06:46:21.329Z,20.30
2017-07-04T06:48:47.606Z,19.90
2017-07-04T06:51:13.879Z,19.60
2017-07-04T06:53:40.440Z,19.40
2017-07-04T06:56:06.699Z,19.80
2017-07-04T06:58:32.978Z,19.90
2017-07-04T07:00:59.265Z,20.00
2017-07-04T07:03:25.525Z,20.30
2017-07-04T07:05:52.212Z,20.40
2017-07-04T07:08:18.476Z,20.40
2017-07-04T07:10:44.767Z,20.60
2017-07-04T07:13:11.074Z,21.00
2017-07-04T07:15:37.331Z,21.30
2017-07-04T07:18:03.615Z,21.30
2017-07-04T07:20:29.893Z,21.60
2017-07-04T07:22:56.601Z,21.90
2017-07-04T07:25:22.839Z,22.10
2017-07-04T07:27:49.111Z,22.20
2017-07-04T07:30:15.405Z,22.00
2017-07-04T07:32:41.755Z,22.10
2017-07-04T07:35:08.066Z,22.10
2017-07-04T07:37:34.354Z,22.30
2017-07-04T07:40:01.891Z,22.10
2017-07-04T07:42:28.206Z,22.20
2017-07-04T07:44:54.504Z,22.10
2017-07-04T07:47:20.782Z,22.10
2017-07-04T07:49:47.059Z,21.80
2017-07-04T07:52:13.344Z,22.00
2017-07-04T07:54:39.964Z,22.40
2017-07-04T07:57:06.503Z,22.40
2017-07-04T07:59:32.776Z,22.70
2017-07-04T08:01:59.064Z,22.40
2017-07-04T08:04:25.354Z,22.50
2017-07-04T08:06:51.663Z,22.70
2017-07-04T08:09:17.940Z,22.80
2017-07-04T08:11:44.239Z,23.00
2017-07-04T08:14:10.512Z,23.00
2017-07-04T08:16:37.358Z,23.10
2017-07-04T08:19:03.711Z,23.10
2017-07-04T08:21:30.018Z,23.10
2017-07-04T08:23:56.293Z,23.10
2017-07-04T08:26:22.620Z,23.20
2017-07-04T08:28:48.904Z,23.20
2017-07-04T08:31:15.268Z,23.00
2017-07-04T08:33:41.549Z,22.90
2017-07-04T08:36:07.872Z,22.80
2017-07-04T08:38:34.154Z,22.50
2017-07-04T08:41:00.424Z,22.70
2017-07-04T08:43:26.742Z,22.90
2017-07-04T08:45:53.048Z,22.60
2017-07-04T08:48:19.331Z,22.40
2017-07-04T08:50:45.592Z,22.40
2017-07-04T08:53:12.171Z,22.40
2017-07-04T08:55:38.413Z,22.80
2017-07-04T08:58:04.720Z,22.80
2017-07-04T09:00:31.024Z,22.90
2017-07-04T09:02:57.274Z,23.10
2017-07-04T09:05:23.508Z,23.20
2017-07-04T09:07:49.779Z,23.50
2017-07-04T09:10:16.042Z,23.70
2017-07-04T09:12:42.355Z,24.10
2017-07-04T09:15:09.009Z,24.30
2017-07-04T09:17:35.296Z,24.30
2017-07-04T09:20:01.571Z,24.30
2017-07-04T09:22:27.857Z,24.60
2017-07-04T09:24:54.137Z,25.10
2017-07-04T09:27:20.375Z,25.50
2017-07-04T09:29:46.665Z,25.40
2017-07-04T09:32:12.965Z,24.90
2017-07-04T09:34:39.253Z,25.00
2017-07-04T09:37:05.519Z,25.30
2017-07-04T09:39:31.813Z,25.50
2017-07-04T09:41:58.107Z,25.60
2017-07-04T09:44:24.821Z,25.90
2017-07-04T09:46:51.150Z,25.80
2017-07-04T09:49:17.493Z,25.90
2017-07-04T09:51:44.513Z,25.80
2017-07-04T09:54:10.789Z,25.70
2017-07-04T09:56:37.070Z,25.50
2017-07-04T09:59:03.376Z,25.60
2017-07-04T10:01:29.624Z,25.50
2017-07-04T10:03:55.936Z,25.40
2017-07-04T10:06:22.241Z,25.40
2017-07-04T10:08:48.895Z,25.40
2017-07-04T10:11:15.303Z,25.40
2017-07-04T10:13:41.976Z,25.50
2017-07-04T10:16:08.244Z,25.50
2017-07-04T10:18:34.523Z,25.30
2017-07-04T10:21:00.799Z,25.60
2017-07-04T10:23:27.106Z,25.90
2017-07-04T10:25:53.750Z,26.00
2017-07-04T10:28:20.005Z,26.30
2017-07-04T10:30:46.303Z,26.80
2017-07-04T10:33:12.598Z,26.90
2017-07-04T10:35:38.856Z,27.00
2017-07-04T10:38:05.772Z,27.20
2017-07-04T10:40:32.025Z,27.20
2017-07-04T10:42:58.626Z,26.90
2017-07-04T10:45:24.904Z,26.60
2017-07-04T10:47:51.183Z,26.70
2017-07-04T10:50:17.467Z,26.90
2017-07-04T10:52:43.759Z,27.30
2017-07-04T10:55:10.056Z,27.60
2017-07-04T10:57:36.337Z,27.80
2017-07-04T11:00:02.676Z,27.80
2017-07-04T11:02:29.003Z,27.90
2017-07-04T11:04:55.315Z,27.80
2017-07-04T11:07:21.617Z,27.80
2017-07-04T11:09:48.272Z,27.60
2017-07-04T11:12:14.618Z,27.60
2017-07-04T11:14:40.900Z,28.00
2017-07-04T11:17:07.179Z,28.10
2017-07-04T11:19:33.455Z,27.60
2017-07-04T11:21:59.717Z,27.50
2017-07-04T11:24:25.984Z,27.90
2017-07-04T11:26:52.286Z,28.30
2017-07-04T11:29:18.646Z,28.50
2017-07-04T11:31:44.913Z,28.70
2017-07-04T11:34:11.573Z,29.00
2017-07-04T11:36:37.862Z,29.00
2017-07-04T11:39:04.221Z,29.20
2017-07-04T11:41:30.878Z,29.50
2017-07-04T11:43:57.166Z,29.50
2017-07-04T11:46:23.454Z,29.60
2017-07-04T11:48:49.750Z,29.80
2017-07-04T11:51:16.059Z,29.80
2017-07-04T11:53:42.333Z,30.10
2017-07-04T11:56:08.634Z,29.50
2017-07-04T11:58:34.929Z,29.50
2017-07-04T12:01:01.235Z,30.00
2017-07-04T12:03:27.587Z,30.30
2017-07-04T12:05:54.115Z,30.80
2017-07-04T12:08:20.427Z,30.90
2017-07-04T12:10:46.706Z,30.70
2017-07-04T12:13:13.016Z,30.20
2017-07-04T12:15:39.293Z,32.30
2017-07-04T12:18:05.590Z,35.20
2017-07-04T12:20:31.870Z,38.30
2017-07-04T12:22:58.288Z,42.00
2017-07-04T12:25:24.552Z,44.00
2017-07-04T12:27:50.814Z,42.70
2017-07-04T12:30:17.107Z,41.00
2017-07-04T12:32:43.388Z,39.40
2017-07-04T12:35:09.688Z,37.80
2017-07-04T12:37:36.865Z,36.30
2017-07-04T12:40:03.149Z,35.30
2017-07-04T12:42:29.418Z,34.20
2017-07-04T12:44:56.119Z,33.50
2017-07-04T12:47:22.419Z,33.20
2017-07-04T12:49:49.168Z,33.50
2017-07-04T12:52:15.879Z,36.10
2017-07-04T12:54:42.239Z,37.00
2017-07-04T12:57:08.526Z,36.70
2017-07-04T12:59:34.783Z,35.70
2017-07-04T13:02:01.351Z,34.90
2017-07-04T13:04:27.610Z,34.20
2017-07-04T13:06:53.933Z,33.70
2017-07-04T13:09:20.666Z,33.50
2017-07-04T13:11:46.942Z,33.20
2017-07-04T13:14:13.199Z,33.20
2017-07-04T13:16:39.520Z,34.00
2017-07-04T13:19:05.796Z,37.00
2017-07-04T13:21:32.344Z,40.90
2017-07-04T13:23:58.971Z,47.50
2017-07-04T13:26:25.253Z,47.50
2017-07-04T13:28:51.528Z,45.90
2017-07-04T13:31:17.875Z,44.00
2017-07-04T13:33:44.541Z,48.00
2017-07-04T13:36:10.801Z,48.00
2017-07-04T13:38:37.088Z,50.60
2017-07-04T13:41:03.392Z,52.60
2017-07-04T13:43:29.648Z,52.20
2017-07-04T13:45:56.047Z,50.30
2017-07-04T13:48:22.390Z,46.90
2017-07-04T13:50:49.174Z,47.70
2017-07-04T13:53:15.486Z,47.80
2017-07-04T13:55:41.763Z,48.90
2017-07-04T13:58:08.061Z,50.10
2017-07-04T14:00:34.368Z,51.90
2017-07-04T14:03:00.666Z,52.90
2017-07-04T14:05:26.972Z,52.80
2017-07-04T14:07:54.122Z,51.00
2017-07-04T14:10:20.385Z,50.60
2017-07-04T14:12:46.650Z,51.80
2017-07-04T14:15:12.935Z,52.20
2017-07-04T14:17:39.237Z,51.30
2017-07-04T14:20:05.527Z,49.90
2017-07-04T14:22:31.772Z,48.60
2017-07-04T14:24:58.052Z,46.90
2017-07-04T14:27:24.326Z,44.10
2017-07-04T14:29:50.629Z,42.90
2017-07-04T14:32:16.932Z,41.50
2017-07-04T14:34:43.200Z,40.60
2017-07-04T14:37:09.484Z,39.70
2017-07-04T14:39:35.768Z,38.50
2017-07-04T14:42:02.438Z,37.70
2017-07-04T14:44:28.706Z,36.50
2017-07-04T14:46:55.009Z,37.10
2017-07-04T14:49:21.307Z,39.90
2017-07-04T14:51:47.569Z,40.90
2017-07-04T14:54:13.861Z,40.30
2017-07-04T14:56:40.130Z,39.30
2017-07-04T14:59:06.852Z,38.60
2017-07-04T15:01:33.122Z,38.10
2017-07-04T15:03:59.527Z,36.90
2017-07-04T15:06:25.810Z,36.00
2017-07-04T15:08:53.032Z,35.50
2017-07-04T15:11:19.328Z,35.00
2017-07-04T15:13:45.605Z,34.80
2017-07-04T15:16:12.693Z,35.20
2017-07-04T15:18:38.949Z,35.20
2017-07-04T15:21:05.227Z,34.80
2017-07-04T15:23:31.584Z,34.20
2017-07-04T15:25:57.999Z,33.70
2017-07-04T15:28:24.282Z,33.50
2017-07-04T15:30:50.597Z,34.10
2017-07-04T15:33:17.259Z,34.00
2017-07-04T15:35:43.935Z,33.20
2017-07-04T15:38:10.234Z,33.20
2017-07-04T15:40:36.566Z,32.90
2017-07-04T15:43:03.219Z,34.80
2017-07-04T15:45:29.546Z,34.80
2017-07-04T15:47:55.841Z,35.00
2017-07-04T15:50:22.405Z,34.60
2017-07-04T15:52:48.671Z,33.70
2017-07-04T15:55:14.948Z,33.10
2017-07-04T15:57:41.607Z,31.70
2017-07-04T16:00:07.897Z,31.70
2017-07-04T16:02:34.178Z,31.40
2017-07-04T16:05:00.452Z,31.30
2017-07-04T16:07:26.758Z,31.10
2017-07-04T16:09:53.043Z,30.90
2017-07-04T16:12:19.317Z,30.80
2017-07-04T16:14:45.903Z,30.70
2017-07-04T16:17:12.153Z,31.20
2017-07-04T16:19:38.440Z,31.30
2017-07-04T16:22:04.748Z,31.20
2017-07-04T16:24:31.032Z,31.20
2017-07-04T16:26:58.341Z,32.40
2017-07-04T16:29:24.623Z,34.10
2017-07-04T16:31:51.120Z,35.30
2017-07-04T16:34:17.902Z,35.90
2017-07-04T16:36:44.441Z,36.30
2017-07-04T16:39:10.978Z,36.90
2017-07-04T16:41:37.469Z,36.90
2017-07-04T16:44:03.910Z,36.30
2017-07-04T16:46:30.283Z,36.30
2017-07-04T16:48:56.593Z,36.70
2017-07-04T16:51:23.022Z,37.30
2017-07-04T16:53:49.782Z,38.20
2017-07-04T16:56:16.112Z,38.80
2017-07-04T16:58:42.364Z,39.10
2017-07-04T17:01:09.109Z,38.90
2017-07-04T17:03:35.348Z,38.20
2017-07-04T17:06:01.624Z,37.10
2017-07-04T17:08:27.891Z,36.30
2017-07-04T17:10:54.211Z,35.60
2017-07-04T17:13:20.505Z,34.80
2017-07-04T17:15:46.804Z,33.90
2017-07-04T17:18:13.425Z,33.50
2017-07-04T17:20:39.699Z,33.10
2017-07-04T17:23:06.001Z,32.70
2017-07-04T17:25:32.631Z,32.40
2017-07-04T17:27:58.902Z,32.10
2017-07-04T17:30:26.153Z,31.80
2017-07-04T17:32:52.439Z,31.50
2017-07-04T17:35:18.732Z,31.20
2017-07-04T17:37:45.028Z,31.00
2017-07-04T17:40:11.326Z,30.70
2017-07-04T17:42:37.624Z,30.40
2017-07-04T17:45:03.928Z,30.20
2017-07-04T17:47:30.210Z,30.00
2017-07-04T17:49:56.526Z,29.90
2017-07-04T17:52:22.775Z,29.70
2017-07-04T17:54:49.368Z,29.50
2017-07-04T17:57:15.673Z,29.30
2017-07-04T17:59:41.946Z,29.10
2017-07-04T18:02:08.673Z,28.70
2017-07-04T18:04:34.950Z,28.50
2017-07-04T18:07:01.237Z,28.40
2017-07-04T18:09:27.555Z,28.30
2017-07-04T18:11:53.883Z,28.20
2017-07-04T18:14:20.182Z,28.10
2017-07-04T18:16:46.447Z,28.10
2017-07-04T18:19:13.020Z,28.00
2017-07-04T18:21:39.281Z,27.80
2017-07-04T18:24:05.599Z,27.70
2017-07-04T18:26:31.956Z,27.60
2017-07-04T18:28:59.109Z,27.50
2017-07-04T18:31:25.949Z,27.30
2017-07-04T18:33:52.227Z,27.10
2017-07-04T18:36:18.812Z,26.90
2017-07-04T18:38:46.084Z,26.80
2017-07-04T18:41:12.413Z,26.60
2017-07-04T18:43:38.779Z,26.30
2017-07-04T18:46:05.182Z,26.30
2017-07-04T18:48:31.877Z,26.10
2017-07-04T18:50:59.698Z,26.00
2017-07-04T18:53:26.662Z,25.70
2017-07-04T18:55:53.039Z,25.70
2017-07-04T18:58:21.874Z,25.50
2017-07-04T19:00:49.350Z,25.50
2017-07-04T19:03:15.883Z,25.30
2017-07-04T19:05:43.496Z,25.20
2017-07-04T19:08:09.888Z,25.00
2017-07-04T19:10:36.704Z,25.00
2017-07-04T19:13:03.094Z,24.90
2017-07-04T19:15:29.567Z,24.70
2017-07-04T19:17:56.057Z,24.60
2017-07-04T19:20:22.405Z,24.40
2017-07-04T19:22:48.780Z,24.30
2017-07-04T19:25:15.563Z,24.20
2017-07-04T19:27:41.942Z,24.00
2017-07-04T19:30:08.317Z,23.90
2017-07-04T19:32:34.663Z,23.80
2017-07-04T19:35:01.900Z,23.70
2017-07-04T19:37:31.415Z,23.50
2017-07-04T19:39:58.920Z,23.50
2017-07-04T19:42:25.793Z,23.30
2017-07-04T19:44:52.490Z,23.20
2017-07-04T19:47:19.010Z,23.10
2017-07-04T19:49:45.794Z,23.10
2017-07-04T19:52:12.399Z,23.00
2017-07-04T19:54:39.237Z,22.90
2017-07-04T19:57:05.915Z,22.90
2017-07-04T19:59:33.046Z,22.70
2017-07-04T20:02:00.847Z,22.70
2017-07-04T20:04:29.793Z,22.60
2017-07-04T20:06:58.571Z,22.60
2017-07-04T20:09:25.964Z,22.60
2017-07-04T20:11:53.150Z,22.50
2017-07-04T20:14:20.447Z,22.40
2017-07-04T20:16:47.587Z,22.30
2017-07-04T20:19:15.743Z,22.30
2017-07-04T20:21:42.556Z,22.20
2017-07-04T20:24:09.248Z,22.20
2017-07-04T20:26:36.065Z,22.20
2017-07-04T20:29:02.742Z,22.10
2017-07-04T20:31:29.307Z,21.80
2017-07-04T20:33:57.087Z,21.60
2017-07-04T20:36:23.770Z,21.60
2017-07-04T20:38:51.645Z,21.50
2017-07-04T20:41:18.336Z,21.40
2017-07-04T20:43:44.999Z,21.40
2017-07-04T20:46:11.603Z,21.30
2017-07-04T20:48:38.209Z,21.10
2017-07-04T20:51:04.981Z,21.00
2017-07-04T20:53:32.335Z,21.00
2017-07-04T20:55:58.921Z,21.10
2017-07-04T20:58:25.236Z,21.00
2017-07-04T21:00:51.568Z,20.80
2017-07-04T21:03:17.912Z,20.90
2017-07-04T21:05:44.229Z,20.80
2017-07-04T21:08:10.516Z,20.70
2017-07-04T21:10:38.213Z,20.70
2017-07-04T21:13:05.485Z,20.70
2017-07-04T21:15:31.788Z,20.70
2017-07-04T21:17:58.766Z,20.70
2017-07-04T21:20:25.614Z,20.60
2017-07-04T21:22:51.902Z,20.60
2017-07-04T21:25:18.204Z,20.50
2017-07-04T21:27:44.895Z,20.40
2017-07-04T21:30:18.073Z,20.40
2017-07-04T21:32:44.359Z,20.30
2017-07-04T21:35:10.641Z,20.30
2017-07-04T21:37:36.988Z,20.30
2017-07-04T21:40:03.240Z,20.10
2017-07-04T21:42:29.533Z,20.10
2017-07-04T21:44:55.838Z,20.10
2017-07-04T21:47:22.958Z,20.10
2017-07-04T21:49:49.212Z,20.10
2017-07-04T21:52:15.512Z,20.00
2017-07-04T21:54:41.796Z,20.00
2017-07-04T21:57:08.109Z,19.90
2017-07-04T21:59:34.381Z,19.80
2017-07-04T22:02:00.712Z,19.80
2017-07-04T22:04:26.988Z,19.90
2017-07-04T22:06:53.304Z,19.80
2017-07-04T22:09:19.970Z,19.80
2017-07-04T22:11:46.259Z,19.70
2017-07-04T22:14:12.559Z,19.70
2017-07-04T22:16:38.828Z,19.60
2017-07-04T22:19:05.495Z,19.50
2017-07-04T22:21:31.786Z,19.40
2017-07-04T22:23:58.069Z,19.50
2017-07-04T22:26:24.506Z,19.60
2017-07-04T22:28:50.780Z,19.40
2017-07-04T22:31:17.119Z,19.30
2017-07-04T22:33:43.438Z,19.30
2017-07-04T22:36:10.121Z,19.40
2017-07-04T22:38:36.406Z,19.40
2017-07-04T22:41:02.764Z,19.40
2017-07-04T22:43:29.041Z,19.40
2017-07-04T22:45:55.303Z,19.30
2017-07-04T22:48:21.636Z,19.30
2017-07-04T22:50:48.376Z,19.30
2017-07-04T22:53:14.654Z,19.30
2017-07-04T22:55:40.919Z,19.20
2017-07-04T22:58:07.586Z,19.10
2017-07-04T23:00:33.895Z,19.20
2017-07-04T23:03:00.167Z,19.20
2017-07-04T23:05:26.444Z,19.10
2017-07-04T23:07:53.188Z,18.70
2017-07-04T23:10:23.778Z,18.70
2017-07-04T23:12:52.965Z,18.70
2017-07-04T23:15:20.100Z,18.70
2017-07-04T23:17:46.406Z,18.70
2017-07-04T23:20:13.615Z,18.70
2017-07-04T23:22:40.758Z,18.70
2017-07-04T23:25:09.243Z,18.70
2017-07-04T23:27:36.503Z,18.70
2017-07-04T23:30:05.288Z,18.70
2017-07-04T23:32:32.248Z,18.70
2017-07-04T23:35:02.466Z,18.60
2017-07-04T23:37:28.819Z,18.40
2017-07-04T23:39:56.697Z,18.50
2017-07-04T23:42:26.914Z,18.50
2017-07-04T23:44:53.234Z,18.50
2017-07-04T23:47:23.024Z,18.50
2017-07-04T23:49:49.291Z,18.50
2017-07-04T23:52:15.582Z,18.50
2017-07-04T23:54:41.864Z,18.50
2017-07-04T23:57:08.144Z,18.50
2017-07-04T23:59:34.434Z,18.50
